Lexington, Pennsylvania
Current Conditions -  °F | °C
As of 11:53 PM on Saturday 20 Dec 2014 (Local Time) from KLNS Reporting Station
Overcast Overcast  
Wind Chill: 28°   Ceiling: 3300
Heat Index: 28°   Visibility: 7mi
Dew Point: 22°   Wind: 3mph
Humidity: 78%   Direction: 260°W
Pressure: 30.28"   Gusts: NA
Location:  40.1769°N, 76.295°W
Report Text: KLNS 210453Z AUTO 26003KT 7SM OVC033 M02/M06 A3028 RMK AO2 SLP258 T10221056 400111033
Loading
Personal Weather Stations






























Interactive Weather Map New forecast layout! Learn more

10-Day Weather Forecast

Advertisements
Track Severe Weather on mobile